sensor_id;sensor_type;location;lat;lon;timestamp;temperature;humidity
70076;DHT22;63241;51.056;3.698;2023-06-26T00:02:52;21.80;64.60
70076;DHT22;63241;51.056;3.698;2023-06-26T00:06:11;21.80;64.60
70076;DHT22;63241;51.056;3.698;2023-06-26T00:08:57;21.80;64.80
70076;DHT22;63241;51.056;3.698;2023-06-26T00:11:43;21.70;65.10
70076;DHT22;63241;51.056;3.698;2023-06-26T00:21:02;21.40;66.40
70076;DHT22;63241;51.056;3.698;2023-06-26T00:23:49;21.30;66.80
70076;DHT22;63241;51.056;3.698;2023-06-26T00:26:35;21.20;67.20
70076;DHT22;63241;51.056;3.698;2023-06-26T00:29:39;21.20;67.50
70076;DHT22;63241;51.056;3.698;2023-06-26T00:32:44;21.10;67.90
70076;DHT22;63241;51.056;3.698;2023-06-26T00:35:30;21.10;68.40
70076;DHT22;63241;51.056;3.698;2023-06-26T00:38:16;21.00;69.20
70076;DHT22;63241;51.056;3.698;2023-06-26T00:41:02;21.00;69.40
70076;DHT22;63241;51.056;3.698;2023-06-26T00:44:08;21.00;69.40
70076;DHT22;63241;51.056;3.698;2023-06-26T00:47:26;21.00;70.40
70076;DHT22;63241;51.056;3.698;2023-06-26T00:50:13;20.90;71.00
70076;DHT22;63241;51.056;3.698;2023-06-26T00:53:00;20.90;71.80
70076;DHT22;63241;51.056;3.698;2023-06-26T00:59:54;20.80;72.80
70076;DHT22;63241;51.056;3.698;2023-06-26T01:02:41;20.80;74.20
70076;DHT22;63241;51.056;3.698;2023-06-26T01:05:28;20.80;74.90
70076;DHT22;63241;51.056;3.698;2023-06-26T01:08:15;20.80;75.30
70076;DHT22;63241;51.056;3.698;2023-06-26T01:14:50;20.90;76.90
70076;DHT22;63241;51.056;3.698;2023-06-26T01:17:37;20.80;78.00
70076;DHT22;63241;51.056;3.698;2023-06-26T01:20:24;20.90;79.40
70076;DHT22;63241;51.056;3.698;2023-06-26T01:27:18;20.90;80.30
70076;DHT22;63241;51.056;3.698;2023-06-26T01:30:06;20.80;81.70
70076;DHT22;63241;51.056;3.698;2023-06-26T01:32:53;20.70;82.30
70076;DHT22;63241;51.056;3.698;2023-06-26T01:35:40;20.70;83.50
70076;DHT22;63241;51.056;3.698;2023-06-26T01:44:47;20.30;89.50
70076;DHT22;63241;51.056;3.698;2023-06-26T01:47:35;20.30;90.40
70076;DHT22;63241;51.056;3.698;2023-06-26T03:12:29;18.50;99.90
70076;DHT22;63241;51.056;3.698;2023-06-26T03:15:40;18.40;99.90
70076;DHT22;63241;51.056;3.698;2023-06-26T03:18:26;18.30;99.90
70076;DHT22;63241;51.056;3.698;2023-06-26T03:21:13;18.20;99.90
70076;DHT22;63241;51.056;3.698;2023-06-26T03:23:59;18.10;99.90
70076;DHT22;63241;51.056;3.698;2023-06-26T03:27:04;18.10;99.90
70076;DHT22;63241;51.056;3.698;2023-06-26T03:30:14;18.00;99.90
70076;DHT22;63241;51.056;3.698;2023-06-26T03:33:00;17.90;99.90
70076;DHT22;63241;51.056;3.698;2023-06-26T03:35:47;17.80;99.90
70076;DHT22;63241;51.056;3.698;2023-06-26T03:38:33;17.80;99.90
70076;DHT22;63241;51.056;3.698;2023-06-26T03:44:53;17.70;99.90
70076;DHT22;63241;51.056;3.698;2023-06-26T03:47:40;17.60;99.90
70076;DHT22;63241;51.056;3.698;2023-06-26T03:50:26;17.60;99.90
70076;DHT22;63241;51.056;3.698;2023-06-26T03:57:16;17.50;99.90
70076;DHT22;63241;51.056;3.698;2023-06-26T04:00:03;17.50;99.90
70076;DHT22;63241;51.056;3.698;2023-06-26T04:02:56;17.60;99.90
70076;DHT22;63241;51.056;3.698;2023-06-26T04:06:01;17.60;99.90
70076;DHT22;63241;51.056;3.698;2023-06-26T04:08:47;17.60;99.90
70076;DHT22;63241;51.056;3.698;2023-06-26T04:11:34;17.70;99.90
70076;DHT22;63241;51.056;3.698;2023-06-26T04:18:25;18.10;99.90
70076;DHT22;63241;51.056;3.698;2023-06-26T04:21:12;18.20;99.90
70076;DHT22;63241;51.056;3.698;2023-06-26T04:23:59;18.30;99.90
70076;DHT22;63241;51.056;3.698;2023-06-26T04:26:45;18.60;99.90
70076;DHT22;63241;51.056;3.698;2023-06-26T04:29:56;18.90;99.90
70076;DHT22;63241;51.056;3.698;2023-06-26T04:36:14;19.50;99.90
70076;DHT22;63241;51.056;3.698;2023-06-26T05:32:29;37.30;33.60
70076;DHT22;63241;51.056;3.698;2023-06-26T05:35:17;37.80;30.90
70076;DHT22;63241;51.056;3.698;2023-06-26T06:12:29;45.00;23.50
70076;DHT22;63241;51.056;3.698;2023-06-26T06:15:16;45.30;23.10
70076;DHT22;63241;51.056;3.698;2023-06-26T06:18:25;45.30;22.70
70076;DHT22;63241;51.056;3.698;2023-06-26T06:21:33;45.00;22.80
70076;DHT22;63241;51.056;3.698;2023-06-26T06:24:20;45.50;22.70
70076;DHT22;63241;51.056;3.698;2023-06-26T06:27:06;45.40;22.30
70076;DHT22;63241;51.056;3.698;2023-06-26T06:35:12;45.70;22.40
70076;DHT22;63241;51.056;3.698;2023-06-26T06:37:58;45.70;21.90
70076;DHT22;63241;51.056;3.698;2023-06-26T06:40:44;45.80;21.80
70076;DHT22;63241;51.056;3.698;2023-06-26T06:43:30;46.30;21.30
70076;DHT22;63241;51.056;3.698;2023-06-26T06:54:54;48.90;19.70
70076;DHT22;63241;51.056;3.698;2023-06-26T06:57:41;49.60;19.60
70076;DHT22;63241;51.056;3.698;2023-06-26T07:00:38;49.70;19.20
70076;DHT22;63241;51.056;3.698;2023-06-26T07:03:45;49.40;19.10
70076;DHT22;63241;51.056;3.698;2023-06-26T07:06:31;49.00;19.00
70076;DHT22;63241;51.056;3.698;2023-06-26T07:09:18;48.40;19.50
70076;DHT22;63241;51.056;3.698;2023-06-26T07:12:36;48.40;19.10
70076;DHT22;63241;51.056;3.698;2023-06-26T07:15:45;48.70;19.70
70076;DHT22;63241;51.056;3.698;2023-06-26T07:18:32;49.90;19.00
70076;DHT22;63241;51.056;3.698;2023-06-26T07:21:19;48.70;19.10
70076;DHT22;63241;51.056;3.698;2023-06-26T07:24:05;48.70;19.20
70076;DHT22;63241;51.056;3.698;2023-06-26T07:31:02;50.10;18.50
70076;DHT22;63241;51.056;3.698;2023-06-26T07:33:49;50.50;18.40
70076;DHT22;63241;51.056;3.698;2023-06-26T07:36:35;51.10;17.80
70076;DHT22;63241;51.056;3.698;2023-06-26T07:39:49;51.50;17.30
70076;DHT22;63241;51.056;3.698;2023-06-26T07:43:01;51.00;17.20
70076;DHT22;63241;51.056;3.698;2023-06-26T07:45:52;51.90;17.10
70076;DHT22;63241;51.056;3.698;2023-06-26T07:48:38;52.30;17.10
70076;DHT22;63241;51.056;3.698;2023-06-26T07:51:25;52.90;16.80
70076;DHT22;63241;51.056;3.698;2023-06-26T07:58:16;54.40;16.50
70076;DHT22;63241;51.056;3.698;2023-06-26T08:01:02;52.60;16.30
70076;DHT22;63241;51.056;3.698;2023-06-26T08:03:48;49.70;17.40
70076;DHT22;63241;51.056;3.698;2023-06-26T08:10:38;52.00;17.50
70076;DHT22;63241;51.056;3.698;2023-06-26T08:13:24;54.30;16.50
70076;DHT22;63241;51.056;3.698;2023-06-26T08:16:10;53.90;15.50
70076;DHT22;63241;51.056;3.698;2023-06-26T08:18:57;51.60;16.70
70076;DHT22;63241;51.056;3.698;2023-06-26T08:22:11;52.60;16.50
70076;DHT22;63241;51.056;3.698;2023-06-26T08:25:17;53.80;16.30
70076;DHT22;63241;51.056;3.698;2023-06-26T08:28:03;54.80;15.60
70076;DHT22;63241;51.056;3.698;2023-06-26T08:30:49;55.00;15.30
70076;DHT22;63241;51.056;3.698;2023-06-26T08:37:47;55.80;15.40
70076;DHT22;63241;51.056;3.698;2023-06-26T08:40:33;56.20;14.80
70076;DHT22;63241;51.056;3.698;2023-06-26T08:43:19;56.60;14.90
70076;DHT22;63241;51.056;3.698;2023-06-26T08:46:07;55.80;14.70
70076;DHT22;63241;51.056;3.698;2023-06-26T08:53:30;56.90;14.50
70076;DHT22;63241;51.056;3.698;2023-06-26T08:55:52;56.40;14.00
70076;DHT22;63241;51.056;3.698;2023-06-26T08:58:38;53.90;15.00
70076;DHT22;63241;51.056;3.698;2023-06-26T09:07:57;51.10;16.10
70076;DHT22;63241;51.056;3.698;2023-06-26T09:10:43;50.80;16.60
70076;DHT22;63241;51.056;3.698;2023-06-26T09:13:30;51.00;16.40
70076;DHT22;63241;51.056;3.698;2023-06-26T09:20:27;51.30;15.80
70076;DHT22;63241;51.056;3.698;2023-06-26T09:23:12;52.60;15.30
70076;DHT22;63241;51.056;3.698;2023-06-26T09:25:59;53.20;15.00
70076;DHT22;63241;51.056;3.698;2023-06-26T09:29:21;53.50;15.50
70076;DHT22;63241;51.056;3.698;2023-06-26T09:35:13;48.40;16.40
70076;DHT22;63241;51.056;3.698;2023-06-26T09:37:59;47.40;17.50
70076;DHT22;63241;51.056;3.698;2023-06-26T09:40:45;47.70;17.80
70076;DHT22;63241;51.056;3.698;2023-06-26T09:43:55;46.20;18.10
70076;DHT22;63241;51.056;3.698;2023-06-26T09:47:04;43.90;19.10
70076;DHT22;63241;51.056;3.698;2023-06-26T09:49:50;44.50;19.40
70076;DHT22;63241;51.056;3.698;2023-06-26T09:52:37;45.30;18.50
70076;DHT22;63241;51.056;3.698;2023-06-26T09:59:00;43.60;19.50
70076;DHT22;63241;51.056;3.698;2023-06-26T10:01:46;44.20;19.50
70076;DHT22;63241;51.056;3.698;2023-06-26T10:04:33;42.40;20.40
70076;DHT22;63241;51.056;3.698;2023-06-26T10:07:24;43.00;20.80
70076;DHT22;63241;51.056;3.698;2023-06-26T10:10:11;44.50;19.40
70076;DHT22;63241;51.056;3.698;2023-06-26T10:12:59;43.70;19.90
70076;DHT22;63241;51.056;3.698;2023-06-26T10:15:46;43.10;20.20
70076;DHT22;63241;51.056;3.698;2023-06-26T10:22:32;42.50;19.80
70076;DHT22;63241;51.056;3.698;2023-06-26T10:25:19;43.30;19.80
70076;DHT22;63241;51.056;3.698;2023-06-26T10:28:08;42.90;20.10
70076;DHT22;63241;51.056;3.698;2023-06-26T10:31:07;43.40;19.40
70076;DHT22;63241;51.056;3.698;2023-06-26T10:34:01;44.90;18.60
70076;DHT22;63241;51.056;3.698;2023-06-26T10:36:47;45.80;18.40
70076;DHT22;63241;51.056;3.698;2023-06-26T10:39:50;46.60;18.20
70076;DHT22;63241;51.056;3.698;2023-06-26T10:42:39;47.10;17.80
70076;DHT22;63241;51.056;3.698;2023-06-26T10:45:49;47.50;16.90
70076;DHT22;63241;51.056;3.698;2023-06-26T10:49:06;46.40;16.80
70076;DHT22;63241;51.056;3.698;2023-06-26T10:51:54;43.70;18.30
70076;DHT22;63241;51.056;3.698;2023-06-26T10:54:42;42.10;19.30
70076;DHT22;63241;51.056;3.698;2023-06-26T11:01:29;41.80;19.60
70076;DHT22;63241;51.056;3.698;2023-06-26T11:04:10;41.90;20.30
70076;DHT22;63241;51.056;3.698;2023-06-26T11:07:13;42.50;19.00
70076;DHT22;63241;51.056;3.698;2023-06-26T11:10:07;44.80;18.20
70076;DHT22;63241;51.056;3.698;2023-06-26T11:16:52;48.10;16.60
70076;DHT22;63241;51.056;3.698;2023-06-26T11:19:41;49.00;16.30
70076;DHT22;63241;51.056;3.698;2023-06-26T11:22:28;49.90;15.90
70076;DHT22;63241;51.056;3.698;2023-06-26T11:28:53;49.90;15.10
70076;DHT22;63241;51.056;3.698;2023-06-26T11:31:41;49.00;15.70
70076;DHT22;63241;51.056;3.698;2023-06-26T11:34:29;48.30;15.50
70076;DHT22;63241;51.056;3.698;2023-06-26T11:37:19;47.90;15.30
70076;DHT22;63241;51.056;3.698;2023-06-26T11:46:10;49.00;15.40
70076;DHT22;63241;51.056;3.698;2023-06-26T11:48:56;46.60;16.20
70076;DHT22;63241;51.056;3.698;2023-06-26T11:51:43;44.90;16.80
70076;DHT22;63241;51.056;3.698;2023-06-26T11:58:15;45.20;17.50
70076;DHT22;63241;51.056;3.698;2023-06-26T12:01:01;43.80;17.60
70076;DHT22;63241;51.056;3.698;2023-06-26T12:03:48;43.40;18.50
70076;DHT22;63241;51.056;3.698;2023-06-26T12:10:21;42.30;18.70
70076;DHT22;63241;51.056;3.698;2023-06-26T12:13:08;41.90;19.40
70076;DHT22;63241;51.056;3.698;2023-06-26T12:15:55;42.40;20.20
70076;DHT22;63241;51.056;3.698;2023-06-26T12:18:42;43.50;19.00
70076;DHT22;63241;51.056;3.698;2023-06-26T12:21:59;43.10;18.80
70076;DHT22;63241;51.056;3.698;2023-06-26T12:25:00;42.50;19.20
70076;DHT22;63241;51.056;3.698;2023-06-26T12:27:46;42.90;19.10
70076;DHT22;63241;51.056;3.698;2023-06-26T12:30:33;42.70;18.90
70076;DHT22;63241;51.056;3.698;2023-06-26T12:33:20;43.10;18.40
70076;DHT22;63241;51.056;3.698;2023-06-26T12:36:17;44.50;18.20
70076;DHT22;63241;51.056;3.698;2023-06-26T12:39:09;44.40;17.30
70076;DHT22;63241;51.056;3.698;2023-06-26T12:41:57;42.70;18.60
70076;DHT22;63241;51.056;3.698;2023-06-26T12:44:45;41.30;19.70
70076;DHT22;63241;51.056;3.698;2023-06-26T12:50:51;40.80;21.20
70076;DHT22;63241;51.056;3.698;2023-06-26T12:53:38;40.60;20.90
70076;DHT22;63241;51.056;3.698;2023-06-26T12:56:27;39.00;21.50
70076;DHT22;63241;51.056;3.698;2023-06-26T12:59:14;38.50;22.50
70076;DHT22;63241;51.056;3.698;2023-06-26T13:06:08;37.00;23.50
70076;DHT22;63241;51.056;3.698;2023-06-26T13:08:54;36.10;24.30
70076;DHT22;63241;51.056;3.698;2023-06-26T13:11:40;36.50;24.40
70076;DHT22;63241;51.056;3.698;2023-06-26T13:18:21;36.00;24.60
70076;DHT22;63241;51.056;3.698;2023-06-26T13:21:08;36.90;24.00
70076;DHT22;63241;51.056;3.698;2023-06-26T13:23:54;37.20;23.50
70076;DHT22;63241;51.056;3.698;2023-06-26T13:26:41;37.60;23.40
70076;DHT22;63241;51.056;3.698;2023-06-26T13:33:13;37.40;23.40
70076;DHT22;63241;51.056;3.698;2023-06-26T13:36:00;37.40;23.40
70076;DHT22;63241;51.056;3.698;2023-06-26T13:38:47;37.50;23.10
70076;DHT22;63241;51.056;3.698;2023-06-26T13:48:22;36.00;23.80
70076;DHT22;63241;51.056;3.698;2023-06-26T13:51:10;35.90;22.80
70076;DHT22;63241;51.056;3.698;2023-06-26T13:53:57;35.70;23.10
70076;DHT22;63241;51.056;3.698;2023-06-26T14:00:48;34.90;23.10
70076;DHT22;63241;51.056;3.698;2023-06-26T14:03:35;34.50;23.90
70076;DHT22;63241;51.056;3.698;2023-06-26T14:32:53;34.20;26.40
70076;DHT22;63241;51.056;3.698;2023-06-26T14:35:39;34.20;27.00
70076;DHT22;63241;51.056;3.698;2023-06-26T14:38:43;34.20;27.40
70076;DHT22;63241;51.056;3.698;2023-06-26T14:41:52;34.00;28.20
70076;DHT22;63241;51.056;3.698;2023-06-26T14:44:39;33.90;28.60
70076;DHT22;63241;51.056;3.698;2023-06-26T14:47:25;33.80;28.30
70076;DHT22;63241;51.056;3.698;2023-06-26T14:50:41;33.30;28.50
70076;DHT22;63241;51.056;3.698;2023-06-26T14:53:50;33.00;29.30
70076;DHT22;63241;51.056;3.698;2023-06-26T14:56:36;32.90;29.30
70076;DHT22;63241;51.056;3.698;2023-06-26T14:59:23;32.70;29.40
70076;DHT22;63241;51.056;3.698;2023-06-26T15:02:09;32.60;29.70
70076;DHT22;63241;51.056;3.698;2023-06-26T15:11:04;32.60;28.80
70076;DHT22;63241;51.056;3.698;2023-06-26T15:13:51;32.60;29.00
70076;DHT22;63241;51.056;3.698;2023-06-26T15:16:39;32.60;28.80
70076;DHT22;63241;51.056;3.698;2023-06-26T15:23:08;32.30;29.20
70076;DHT22;63241;51.056;3.698;2023-06-26T15:25:54;32.10;29.20
70076;DHT22;63241;51.056;3.698;2023-06-26T15:28:40;31.90;29.70
70076;DHT22;63241;51.056;3.698;2023-06-26T15:31:49;31.90;29.20
70076;DHT22;63241;51.056;3.698;2023-06-26T15:34:59;31.80;29.40
70076;DHT22;63241;51.056;3.698;2023-06-26T15:37:45;31.50;29.90
70076;DHT22;63241;51.056;3.698;2023-06-26T15:40:32;31.30;30.00
70076;DHT22;63241;51.056;3.698;2023-06-26T15:43:30;31.30;30.20
70076;DHT22;63241;51.056;3.698;2023-06-26T15:50:16;30.80;30.90
70076;DHT22;63241;51.056;3.698;2023-06-26T15:53:04;30.50;32.10
70076;DHT22;63241;51.056;3.698;2023-06-26T15:55:50;30.10;33.10
70076;DHT22;63241;51.056;3.698;2023-06-26T15:59:00;30.10;33.80
70076;DHT22;63241;51.056;3.698;2023-06-26T16:02:10;30.00;34.10
70076;DHT22;63241;51.056;3.698;2023-06-26T16:04:56;29.90;34.40
70076;DHT22;63241;51.056;3.698;2023-06-26T16:11:25;29.50;35.20
70076;DHT22;63241;51.056;3.698;2023-06-26T16:14:12;29.70;35.10
70076;DHT22;63241;51.056;3.698;2023-06-26T16:20:52;29.60;35.20
70076;DHT22;63241;51.056;3.698;2023-06-26T16:23:38;29.60;35.40
70076;DHT22;63241;51.056;3.698;2023-06-26T16:26:24;29.30;36.10
70076;DHT22;63241;51.056;3.698;2023-06-26T16:29:11;29.20;36.20
70076;DHT22;63241;51.056;3.698;2023-06-26T16:34:34;29.10;36.80
70076;DHT22;63241;51.056;3.698;2023-06-26T16:37:20;29.10;36.90
70076;DHT22;63241;51.056;3.698;2023-06-26T16:40:08;29.00;37.10
70076;DHT22;63241;51.056;3.698;2023-06-26T16:42:55;29.00;36.90
70076;DHT22;63241;51.056;3.698;2023-06-26T16:46:02;28.80;37.50
70076;DHT22;63241;51.056;3.698;2023-06-26T16:49:26;28.70;37.90
70076;DHT22;63241;51.056;3.698;2023-06-26T16:55:00;28.10;39.40
70076;DHT22;63241;51.056;3.698;2023-06-26T17:08:32;27.80;39.70
70076;DHT22;63241;51.056;3.698;2023-06-26T17:11:29;27.70;39.80
70076;DHT22;63241;51.056;3.698;2023-06-26T17:17:03;27.20;40.50
70076;DHT22;63241;51.056;3.698;2023-06-26T17:19:50;27.10;40.90
70076;DHT22;63241;51.056;3.698;2023-06-26T17:22:37;27.00;41.10
70076;DHT22;63241;51.056;3.698;2023-06-26T17:25:45;26.90;41.20
70076;DHT22;63241;51.056;3.698;2023-06-26T17:48:24;26.50;41.80
70076;DHT22;63241;51.056;3.698;2023-06-26T17:51:11;26.40;41.80
70076;DHT22;63241;51.056;3.698;2023-06-26T17:59:28;25.80;42.00
70076;DHT22;63241;51.056;3.698;2023-06-26T18:02:15;25.70;42.40
70076;DHT22;63241;51.056;3.698;2023-06-26T18:05:01;25.70;42.30
70076;DHT22;63241;51.056;3.698;2023-06-26T18:19:11;24.90;43.80
70076;DHT22;63241;51.056;3.698;2023-06-26T18:25:18;24.80;44.30
70076;DHT22;63241;51.056;3.698;2023-06-26T18:28:04;24.70;44.70
70076;DHT22;63241;51.056;3.698;2023-06-26T18:30:51;24.60;44.90
70076;DHT22;63241;51.056;3.698;2023-06-26T18:33:41;24.60;45.20
70076;DHT22;63241;51.056;3.698;2023-06-26T18:36:41;24.60;45.40
70076;DHT22;63241;51.056;3.698;2023-06-26T18:39:38;24.50;45.70
70076;DHT22;63241;51.056;3.698;2023-06-26T18:42:24;24.30;46.10
70076;DHT22;63241;51.056;3.698;2023-06-26T18:45:11;24.20;46.60
70076;DHT22;63241;51.056;3.698;2023-06-26T18:48:09;24.10;46.70
70076;DHT22;63241;51.056;3.698;2023-06-26T18:51:15;24.10;47.00
70076;DHT22;63241;51.056;3.698;2023-06-26T18:54:02;23.90;47.60
70076;DHT22;63241;51.056;3.698;2023-06-26T18:56:48;23.80;48.20
70076;DHT22;63241;51.056;3.698;2023-06-26T18:59:35;23.60;49.10
70076;DHT22;63241;51.056;3.698;2023-06-26T19:09:07;23.10;50.60
70076;DHT22;63241;51.056;3.698;2023-06-26T19:11:55;22.90;51.10
70076;DHT22;63241;51.056;3.698;2023-06-26T19:18:36;22.60;51.40
70076;DHT22;63241;51.056;3.698;2023-06-26T19:21:22;22.40;51.90
70076;DHT22;63241;51.056;3.698;2023-06-26T19:24:08;22.20;52.30
70076;DHT22;63241;51.056;3.698;2023-06-26T19:26:55;22.00;52.60
70076;DHT22;63241;51.056;3.698;2023-06-26T19:33:11;21.70;53.10
70076;DHT22;63241;51.056;3.698;2023-06-26T19:35:58;21.60;53.30
70076;DHT22;63241;51.056;3.698;2023-06-26T19:38:44;21.50;53.50
70076;DHT22;63241;51.056;3.698;2023-06-26T19:45:38;21.30;53.70
70076;DHT22;63241;51.056;3.698;2023-06-26T19:48:24;21.10;54.30
70076;DHT22;63241;51.056;3.698;2023-06-26T19:51:14;21.00;54.40
70076;DHT22;63241;51.056;3.698;2023-06-26T19:53:59;20.90;54.60
70076;DHT22;63241;51.056;3.698;2023-06-26T20:03:07;20.60;55.60
70076;DHT22;63241;51.056;3.698;2023-06-26T20:05:53;20.60;56.00
70076;DHT22;63241;51.056;3.698;2023-06-26T21:25:50;18.50;65.40
70076;DHT22;63241;51.056;3.698;2023-06-26T21:28:36;18.40;66.20
70076;DHT22;63241;51.056;3.698;2023-06-26T21:31:53;18.40;66.20
70076;DHT22;63241;51.056;3.698;2023-06-26T21:35:04;18.30;67.00
70076;DHT22;63241;51.056;3.698;2023-06-26T21:37:50;18.30;66.60
70076;DHT22;63241;51.056;3.698;2023-06-26T21:40:36;18.30;66.80
70076;DHT22;63241;51.056;3.698;2023-06-26T21:43:23;18.30;67.30
70076;DHT22;63241;51.056;3.698;2023-06-26T21:54:08;18.10;68.30
70076;DHT22;63241;51.056;3.698;2023-06-26T21:56:55;18.10;68.80
70076;DHT22;63241;51.056;3.698;2023-06-26T22:03:45;18.00;68.80
70076;DHT22;63241;51.056;3.698;2023-06-26T22:06:32;17.90;70.00
70076;DHT22;63241;51.056;3.698;2023-06-26T22:09:18;17.90;70.80
70076;DHT22;63241;51.056;3.698;2023-06-26T22:16:02;17.80;71.30
70076;DHT22;63241;51.056;3.698;2023-06-26T22:18:48;17.80;71.50
70076;DHT22;63241;51.056;3.698;2023-06-26T22:21:35;17.70;72.40
70076;DHT22;63241;51.056;3.698;2023-06-26T22:24:21;17.70;73.10
70076;DHT22;63241;51.056;3.698;2023-06-26T22:27:26;17.70;73.80
70076;DHT22;63241;51.056;3.698;2023-06-26T22:30:33;17.60;74.20
70076;DHT22;63241;51.056;3.698;2023-06-26T22:33:42;17.60;74.60
70076;DHT22;63241;51.056;3.698;2023-06-26T22:36:29;17.60;75.00
70076;DHT22;63241;51.056;3.698;2023-06-26T22:39:15;17.50;75.90
70076;DHT22;63241;51.056;3.698;2023-06-26T22:42:02;17.50;76.60
70076;DHT22;63241;51.056;3.698;2023-06-26T22:45:08;17.50;77.50
70076;DHT22;63241;51.056;3.698;2023-06-26T22:48:18;17.50;77.80
70076;DHT22;63241;51.056;3.698;2023-06-26T22:51:04;17.40;78.40
70076;DHT22;63241;51.056;3.698;2023-06-26T22:53:50;17.40;79.80
70076;DHT22;63241;51.056;3.698;2023-06-26T22:56:37;17.30;81.00
70076;DHT22;63241;51.056;3.698;2023-06-26T23:03:11;17.30;81.90
70076;DHT22;63241;51.056;3.698;2023-06-26T23:05:57;17.30;83.10
70076;DHT22;63241;51.056;3.698;2023-06-26T23:08:44;17.30;83.50
70076;DHT22;63241;51.056;3.698;2023-06-26T23:18:06;17.10;86.30
70076;DHT22;63241;51.056;3.698;2023-06-26T23:20:54;17.20;86.60
70076;DHT22;63241;51.056;3.698;2023-06-26T23:23:40;17.10;88.10
70076;DHT22;63241;51.056;3.698;2023-06-26T23:29:14;17.10;89.30
70076;DHT22;63241;51.056;3.698;2023-06-26T23:32:02;17.10;90.00
70076;DHT22;63241;51.056;3.698;2023-06-26T23:34:50;17.10;90.10
70076;DHT22;63241;51.056;3.698;2023-06-26T23:37:37;17.10;90.40
